createdAt,value
2023-01-22T00:03:47.044Z,95.38
2023-01-22T00:05:47.834Z,95.33
2023-01-22T00:07:49.323Z,95.31
2023-01-22T00:09:51.207Z,95.3
2023-01-22T00:11:52.470Z,95.25
2023-01-22T00:13:53.610Z,95.26
2023-01-22T00:15:54.690Z,95.26
2023-01-22T00:17:55.989Z,95.26
2023-01-22T00:19:57.964Z,95.26
2023-01-22T00:21:59.945Z,95.26
2023-01-22T00:24:01.996Z,95.23
2023-01-22T00:26:03.097Z,95.2
2023-01-22T00:28:04.187Z,95.15
2023-01-22T00:30:05.637Z,95.12
2023-01-22T00:32:07.582Z,95.04
2023-01-22T00:34:08.917Z,95.04
2023-01-22T00:36:10.386Z,95.04
2023-01-22T00:38:12.018Z,95.05
2023-01-22T00:40:13.463Z,95.01
2023-01-22T00:42:14.641Z,94.96
2023-01-22T00:46:17.637Z,94.9
2023-01-22T00:48:19.423Z,94.92
2023-01-22T00:50:21.035Z,94.86
2023-01-22T00:52:22.162Z,94.89
2023-01-22T00:54:23.603Z,94.88
2023-01-22T00:56:24.775Z,94.85
2023-01-22T00:58:26.251Z,94.84
2023-01-22T01:00:27.335Z,94.83
2023-01-22T01:02:28.808Z,94.72
2023-01-22T01:04:30.621Z,94.73
2023-01-22T01:06:32.249Z,94.75
2023-01-22T01:08:34.212Z,94.69
2023-01-22T01:10:36.015Z,94.64
2023-01-22T01:12:37.135Z,94.6
2023-01-22T01:14:38.715Z,94.6
2023-01-22T01:18:41.750Z,94.59
2023-01-22T01:20:43.447Z,94.54
2023-01-22T01:22:45.430Z,94.54
2023-01-22T01:24:46.947Z,94.57
2023-01-22T01:28:49.812Z,94.63
2023-01-22T01:30:51.866Z,94.72
2023-01-22T01:32:53.215Z,94.63
2023-01-22T01:34:55.217Z,94.66
2023-01-22T01:36:56.990Z,94.61
2023-01-22T01:38:58.289Z,94.59
2023-01-22T01:40:59.432Z,94.7
2023-01-22T01:43:00.782Z,94.9
2023-01-22T01:45:02.831Z,95.01
2023-01-22T01:47:04.181Z,94.99
2023-01-22T01:49:06.095Z,95.03
2023-01-22T01:51:07.464Z,95.01
2023-01-22T01:53:08.783Z,94.98
2023-01-22T01:55:10.221Z,95.03
2023-01-22T01:57:11.835Z,95.05
2023-01-22T02:01:15.501Z,95.1
2023-01-22T02:03:17.337Z,95.23
2023-01-22T02:05:18.647Z,95.21
2023-01-22T02:07:20.190Z,95.17
2023-01-22T02:11:23.041Z,95.22
2023-01-22T02:13:24.367Z,95.17
2023-01-22T02:15:25.558Z,95.19
2023-01-22T02:17:27.495Z,95.21
2023-01-22T02:19:29.231Z,95.32
2023-01-22T02:21:30.547Z,95.38
2023-01-22T02:23:32.511Z,95.43
2023-01-22T02:25:33.917Z,95.46
2023-01-22T02:27:35.928Z,95.39
2023-01-22T02:29:37.823Z,95.46
2023-01-22T02:31:39.022Z,95.43
2023-01-22T02:33:40.072Z,95.4
2023-01-22T02:35:41.402Z,95.49
2023-01-22T02:37:42.889Z,95.56
2023-01-22T02:39:44.112Z,95.58
2023-01-22T02:41:45.394Z,95.61
2023-01-22T02:43:46.846Z,95.58
2023-01-22T02:45:48.295Z,95.64
2023-01-22T02:47:49.504Z,95.6
2023-01-22T02:49:50.777Z,95.67
2023-01-22T02:51:52.695Z,95.62
2023-01-22T02:53:54.001Z,95.6
2023-01-22T02:55:55.528Z,95.61
2023-01-22T02:59:58.715Z,95.62
2023-01-22T03:02:00.433Z,95.59
2023-01-22T03:04:02.090Z,95.61
2023-01-22T03:06:03.170Z,95.61
2023-01-22T03:10:06.324Z,95.7
2023-01-22T03:12:08.191Z,95.73
2023-01-22T03:12:52.139Z,95.71
2023-01-22T03:14:53.732Z,95.8
2023-01-22T03:16:55.100Z,95.83
2023-01-22T03:18:56.547Z,95.89
2023-01-22T03:20:58.356Z,95.89
2023-01-22T03:22:59.990Z,95.9
2023-01-22T03:25:01.407Z,95.87
2023-01-22T03:27:02.849Z,95.88
2023-01-22T03:29:04.516Z,95.88
2023-01-22T03:31:05.969Z,95.85
2023-01-22T03:33:07.905Z,95.83
2023-01-22T03:37:11.257Z,95.94
2023-01-22T03:39:13.167Z,95.93
2023-01-22T03:41:15.132Z,95.89
2023-01-22T03:43:16.427Z,95.87
2023-01-22T03:47:19.550Z,95.92
2023-01-22T03:49:21.141Z,95.93
2023-01-22T03:51:22.379Z,95.99
2023-01-22T03:53:23.726Z,96.03
2023-01-22T03:55:25.531Z,96.02
2023-01-22T03:57:27.244Z,95.99
2023-01-22T03:59:29.214Z,95.93
2023-01-22T04:01:30.943Z,95.9
2023-01-22T04:03:32.679Z,95.88
2023-01-22T04:05:34.177Z,95.84
2023-01-22T04:07:35.767Z,95.83
2023-01-22T04:09:37.320Z,95.79
2023-01-22T04:11:39.374Z,95.8
2023-01-22T04:13:40.780Z,95.81
2023-01-22T04:15:42.746Z,95.85
2023-01-22T04:17:44.891Z,95.93
2023-01-22T04:19:45.877Z,95.82
2023-01-22T04:21:47.644Z,95.79
2023-01-22T04:23:49.000Z,95.7
2023-01-22T04:25:50.175Z,95.72
2023-01-22T04:29:53.141Z,95.72
2023-01-22T04:31:54.206Z,95.71
2023-01-22T04:33:55.623Z,95.7
2023-01-22T04:35:56.845Z,95.71
2023-01-22T04:37:58.330Z,95.91
2023-01-22T04:39:59.535Z,95.89
2023-01-22T04:42:01.556Z,95.92
2023-01-22T04:44:03.448Z,95.94
2023-01-22T04:46:04.860Z,95.9
2023-01-22T04:48:06.335Z,95.88
2023-01-22T04:50:08.196Z,95.84
2023-01-22T04:52:10.233Z,95.84
2023-01-22T04:54:11.851Z,95.85
2023-01-22T04:56:13.855Z,95.94
2023-01-22T04:58:15.525Z,95.94
2023-01-22T05:00:17.341Z,95.85
2023-01-22T05:02:18.620Z,95.76
2023-01-22T05:04:19.815Z,95.7
2023-01-22T05:06:20.889Z,95.68
2023-01-22T05:08:22.649Z,95.69
2023-01-22T05:12:26.348Z,95.61
2023-01-22T05:14:27.832Z,95.61
2023-01-22T05:16:29.478Z,95.61
2023-01-22T05:18:30.939Z,95.61
2023-01-22T05:20:32.244Z,95.64
2023-01-22T05:22:34.127Z,95.64
2023-01-22T05:24:35.931Z,95.7
2023-01-22T05:26:37.624Z,95.63
2023-01-22T05:28:39.515Z,95.6
2023-01-22T05:30:40.964Z,95.64
2023-01-22T05:32:42.210Z,95.62
2023-01-22T05:34:43.372Z,95.68
2023-01-22T05:36:44.732Z,95.6
2023-01-22T05:38:46.751Z,95.58
2023-01-22T05:40:48.352Z,95.57
2023-01-22T05:42:49.467Z,95.62
2023-01-22T05:44:50.873Z,95.62
2023-01-22T05:46:52.119Z,95.52
2023-01-22T05:48:53.522Z,95.42
2023-01-22T05:50:55.504Z,95.39
2023-01-22T05:54:58.348Z,95.29
2023-01-22T05:57:00.423Z,95.3
2023-01-22T05:59:01.691Z,95.08
2023-01-22T06:01:03.331Z,94.98
2023-01-22T06:03:05.222Z,94.96
2023-01-22T06:05:06.350Z,94.95
2023-01-22T06:07:07.854Z,94.94
2023-01-22T06:09:09.905Z,94.96
2023-01-22T06:11:11.494Z,95.01
2023-01-22T06:13:13.138Z,94.96
2023-01-22T06:15:14.532Z,94.91
2023-01-22T06:17:15.731Z,94.85
2023-01-22T06:19:17.341Z,94.88
2023-01-22T06:21:19.015Z,94.77
2023-01-22T06:23:20.807Z,94.74
2023-01-22T06:25:22.601Z,94.71
2023-01-22T06:27:24.456Z,94.74
2023-01-22T06:29:25.524Z,94.69
2023-01-22T06:31:27.607Z,94.72
2023-01-22T06:33:29.069Z,94.84
2023-01-22T06:37:32.504Z,95.22
2023-01-22T06:39:33.606Z,95.17
2023-01-22T06:41:34.663Z,95.18
2023-01-22T06:43:35.965Z,95.34
2023-01-22T06:45:37.094Z,95.28
2023-01-22T06:47:38.836Z,95.37
2023-01-22T06:49:40.148Z,95.29
2023-01-22T06:51:49.520Z,95.4
2023-01-22T06:53:42.716Z,95.45
2023-01-22T06:55:44.501Z,95.49
2023-01-22T06:57:46.232Z,95.52
2023-01-22T06:59:47.685Z,95.51
2023-01-22T07:01:49.630Z,95.47
2023-01-22T07:04:00.417Z,95.5
2023-01-22T07:05:52.463Z,95.51
2023-01-22T07:09:56.123Z,95.4
2023-01-22T07:11:57.332Z,95.31
2023-01-22T07:13:58.700Z,95.27
2023-01-22T07:16:00.507Z,95.21
2023-01-22T07:20:03.202Z,95.24
2023-01-22T07:22:05.220Z,95.22
2023-01-22T07:24:07.161Z,95.19
2023-01-22T07:26:08.944Z,95.23
2023-01-22T07:28:10.392Z,95.23
2023-01-22T07:30:11.518Z,95.17
2023-01-22T07:32:13.378Z,95.15
2023-01-22T07:34:15.128Z,95
2023-01-22T07:36:16.619Z,94.97
2023-01-22T07:38:18.508Z,95.03
2023-01-22T07:40:20.463Z,94.92
2023-01-22T07:42:21.789Z,94.92
2023-01-22T07:44:23.031Z,94.88
2023-01-22T07:46:24.267Z,94.86
2023-01-22T07:48:33.894Z,94.88
2023-01-22T07:52:28.545Z,94.89
2023-01-22T07:54:30.360Z,94.9
2023-01-22T07:56:32.326Z,94.89
2023-01-22T07:58:34.016Z,94.83
2023-01-22T08:02:36.976Z,94.72
2023-01-22T08:04:38.059Z,94.78
2023-01-22T08:08:40.871Z,94.66
2023-01-22T08:10:42.012Z,94.64
2023-01-22T08:12:45.885Z,94.64
2023-01-22T08:14:44.436Z,94.43
2023-01-22T08:18:47.191Z,94.5
2023-01-22T08:20:48.871Z,94.5
2023-01-22T08:22:50.327Z,94.37
2023-01-22T08:24:51.714Z,94.3
2023-01-22T08:26:53.725Z,94.25
2023-01-22T08:28:54.968Z,94.33
2023-01-22T08:30:56.082Z,94.38
2023-01-22T08:32:57.942Z,94.36
2023-01-22T08:34:59.730Z,94.26
2023-01-22T08:37:01.727Z,94.27
2023-01-22T08:39:03.682Z,94.11
2023-01-22T08:41:05.495Z,94.03
2023-01-22T08:43:06.655Z,94.02
2023-01-22T08:45:08.641Z,94.06
2023-01-22T08:47:10.505Z,94.09
2023-01-22T08:51:13.538Z,94.09
2023-01-22T08:53:15.102Z,94.01
2023-01-22T08:55:16.360Z,93.85
2023-01-22T08:57:18.257Z,93.89
2023-01-22T09:01:20.220Z,93.8
2023-01-22T09:03:21.738Z,93.8
2023-01-22T09:05:23.335Z,93.79
2023-01-22T09:07:25.094Z,93.58
2023-01-22T09:09:26.773Z,93.51
2023-01-22T09:11:28.313Z,93.58
2023-01-22T09:13:30.310Z,93.4
2023-01-22T09:15:31.942Z,93.28
2023-01-22T09:17:33.951Z,93.33
2023-01-22T09:19:35.713Z,93.02
2023-01-22T09:21:37.678Z,93.19
2023-01-22T09:23:38.858Z,92.83
2023-01-22T09:25:40.040Z,92.93
2023-01-22T09:27:41.606Z,92.92
2023-01-22T09:29:43.226Z,93.04
2023-01-22T09:31:44.642Z,92.83
2023-01-22T09:33:46.466Z,92.82
2023-01-22T09:35:47.842Z,92.8
2023-01-22T09:37:49.181Z,92.71
2023-01-22T09:39:50.389Z,92.82
2023-01-22T09:43:52.951Z,92.91
2023-01-22T09:45:54.925Z,92.67
2023-01-22T09:47:55.906Z,92.68
2023-01-22T09:49:57.708Z,92.51
2023-01-22T09:51:59.209Z,92.73
2023-01-22T09:54:00.301Z,93.05
2023-01-22T09:56:01.740Z,92.81
2023-01-22T09:58:02.954Z,92.8
2023-01-22T09:58:46.855Z,92.58
2023-01-22T10:00:48.195Z,92.47
2023-01-22T10:02:49.396Z,93.02
2023-01-22T10:04:50.512Z,92.58
2023-01-22T10:06:52.177Z,92.57
2023-01-22T10:08:53.528Z,92.79
2023-01-22T10:10:55.245Z,92.79
2023-01-22T10:12:56.476Z,92.28
2023-01-22T10:14:57.479Z,92.33
2023-01-22T10:16:58.592Z,92.06
2023-01-22T10:21:01.715Z,92.24
2023-01-22T10:23:03.662Z,92.35
2023-01-22T10:25:05.475Z,92.19
2023-01-22T10:27:06.639Z,92.43
2023-01-22T10:29:08.525Z,92.75
2023-01-22T10:31:09.863Z,92.6
2023-01-22T10:33:10.625Z,92.27
2023-01-22T10:35:12.003Z,92.66
2023-01-22T10:37:13.931Z,92.75
2023-01-22T10:39:15.228Z,92.44
2023-01-22T10:41:17.004Z,92.55
2023-01-22T10:43:18.257Z,92.11
2023-01-22T10:45:19.737Z,92.2
2023-01-22T10:47:21.376Z,92.3
2023-01-22T10:49:22.859Z,92.12
2023-01-22T10:53:26.475Z,92.06
2023-01-22T10:55:28.409Z,92.1
2023-01-22T10:57:30.202Z,92.09
2023-01-22T10:59:31.716Z,91.99
2023-01-22T11:03:34.691Z,91.37
2023-01-22T11:05:36.228Z,91.31
2023-01-22T11:07:37.496Z,91.37
2023-01-22T11:09:39.372Z,90.63
2023-01-22T11:11:41.281Z,90.79
2023-01-22T11:13:43.165Z,90.77
2023-01-22T11:15:44.253Z,90.71
2023-01-22T11:17:45.660Z,90.15
2023-01-22T11:19:47.198Z,90.39
2023-01-22T11:21:48.713Z,90.04
2023-01-22T11:23:50.228Z,90.15
2023-01-22T11:25:51.257Z,89.52
2023-01-22T11:27:53.020Z,89.87
2023-01-22T11:29:54.081Z,90.09
2023-01-22T11:31:55.968Z,90.14
2023-01-22T11:35:58.629Z,90.04
2023-01-22T11:37:59.697Z,89.92
2023-01-22T11:40:01.421Z,90.18
2023-01-22T11:42:03.211Z,90.78
2023-01-22T11:46:06.510Z,90.17
2023-01-22T11:48:08.338Z,89.53
2023-01-22T11:50:09.769Z,89.74
2023-01-22T11:52:11.450Z,89.95
2023-01-22T11:54:13.272Z,89.86
2023-01-22T11:56:14.772Z,89.85
2023-01-22T11:58:16.216Z,89.12
2023-01-22T12:00:17.959Z,88.91
2023-01-22T12:02:19.315Z,89.44
2023-01-22T12:04:20.767Z,89.67
2023-01-22T12:06:21.786Z,88.67
2023-01-22T12:08:23.044Z,89.92
2023-01-22T12:10:24.759Z,89.65
2023-01-22T12:12:26.380Z,88.97
2023-01-22T12:14:28.112Z,89.14
2023-01-22T12:16:29.751Z,89.28
2023-01-22T12:18:31.149Z,88.96
2023-01-22T12:20:32.535Z,88.67
2023-01-22T12:22:34.337Z,89.14
2023-01-22T12:24:35.520Z,89.16
2023-01-22T12:26:36.498Z,89.1
2023-01-22T12:28:37.792Z,89.59
2023-01-22T12:30:39.599Z,89.21
2023-01-22T12:32:40.748Z,89.41
2023-01-22T12:34:41.961Z,88.81
2023-01-22T12:36:43.534Z,89.26
2023-01-22T12:38:44.623Z,89.19
2023-01-22T12:40:45.772Z,89.22
2023-01-22T12:44:48.205Z,88.83
2023-01-22T12:46:49.570Z,88.9
2023-01-22T12:48:50.699Z,89.41
2023-01-22T12:50:52.415Z,89.21
2023-01-22T12:52:54.188Z,89.26
2023-01-22T12:54:55.874Z,88.88
2023-01-22T12:56:57.392Z,89.48
2023-01-22T12:58:59.299Z,88.83
2023-01-22T13:01:00.668Z,88.5
2023-01-22T13:03:01.802Z,89.18
2023-01-22T13:05:03.728Z,88.21
2023-01-22T13:07:05.384Z,89.15
2023-01-22T13:09:06.580Z,89.36
2023-01-22T13:11:07.835Z,88.99
2023-01-22T13:13:09.755Z,88.68
2023-01-22T13:15:10.851Z,88.85
2023-01-22T13:17:12.857Z,89.05
2023-01-22T13:19:13.894Z,89.12
2023-01-22T13:21:15.624Z,88.29
2023-01-22T13:23:17.509Z,88.94
2023-01-22T13:27:20.131Z,88.62
2023-01-22T13:29:21.925Z,89.4
2023-01-22T13:31:23.888Z,88.94
2023-01-22T13:33:24.921Z,88.64
2023-01-22T13:35:26.689Z,89.23
2023-01-22T13:37:28.076Z,89.34
2023-01-22T13:39:29.647Z,89.07
2023-01-22T13:41:31.427Z,88.91
2023-01-22T13:43:33.012Z,88.83
2023-01-22T13:45:34.332Z,89.4
2023-01-22T13:47:36.226Z,88.78
2023-01-22T13:49:37.397Z,88.52
2023-01-22T13:51:38.809Z,89.34
2023-01-22T13:53:40.109Z,89.37
2023-01-22T13:55:41.317Z,88.97
2023-01-22T13:57:42.467Z,88.29
2023-01-22T13:59:43.674Z,88.04
2023-01-22T14:01:45.493Z,87.83
2023-01-22T14:03:46.811Z,87.6
2023-01-22T14:05:50.223Z,87.4
2023-01-22T14:09:51.884Z,87.87
2023-01-22T14:11:53.123Z,87.97
2023-01-22T14:13:54.283Z,87.22
2023-01-22T14:15:55.870Z,87.33
2023-01-22T14:17:57.572Z,87.17
2023-01-22T14:19:58.676Z,87.7
2023-01-22T14:22:00.623Z,87.53
2023-01-22T14:24:02.159Z,87.66
2023-01-22T14:26:03.407Z,87.65
2023-01-22T14:28:05.377Z,87.64
2023-01-22T14:30:06.528Z,87.69
2023-01-22T14:32:07.865Z,87.53
2023-01-22T14:34:09.137Z,87.69
2023-01-22T14:36:10.504Z,88.31
2023-01-22T14:38:12.329Z,88.72
2023-01-22T14:42:15.314Z,88.27
2023-01-22T14:44:16.536Z,88.51
2023-01-22T14:46:18.540Z,88.53
2023-01-22T14:48:20.309Z,88.16
2023-01-22T14:52:23.470Z,88.95
2023-01-22T14:54:24.480Z,88.84
2023-01-22T14:56:25.654Z,89.12
2023-01-22T14:58:26.914Z,89.04
2023-01-22T15:00:28.163Z,89.07
2023-01-22T15:02:29.950Z,89.15
2023-01-22T15:04:31.660Z,89.07
2023-01-22T15:08:34.384Z,89.24
2023-01-22T15:10:36.221Z,89.35
2023-01-22T15:12:37.862Z,89.62
2023-01-22T15:14:39.814Z,89.7
2023-01-22T15:16:41.440Z,89.65
2023-01-22T15:18:42.555Z,89.11
2023-01-22T15:20:44.125Z,89.61
2023-01-22T15:22:45.212Z,89.68
2023-01-22T15:24:47.072Z,89.56
2023-01-22T15:26:48.814Z,89.61
2023-01-22T15:28:50.773Z,89.69
2023-01-22T15:30:59.898Z,89.87
2023-01-22T15:32:53.072Z,89.84
2023-01-22T15:34:54.867Z,90.17
2023-01-22T15:36:56.353Z,90.17
2023-01-22T15:40:59.673Z,90.08
2023-01-22T15:43:03.519Z,89.95
2023-01-22T15:45:02.739Z,89.89
2023-01-22T15:47:04.517Z,89.95
2023-01-22T15:51:08.055Z,90.25
2023-01-22T15:53:09.883Z,90.01
2023-01-22T15:55:11.222Z,90.12
2023-01-22T15:57:12.819Z,90.19
2023-01-22T15:59:14.826Z,89.99
2023-01-22T16:01:16.732Z,90.44
2023-01-22T16:03:18.645Z,90.51
2023-01-22T16:05:20.629Z,90.51
2023-01-22T16:07:22.073Z,90.3
2023-01-22T16:09:23.790Z,90.58
2023-01-22T16:11:25.190Z,90.69
2023-01-22T16:13:26.583Z,90.87
2023-01-22T16:15:28.488Z,90.81
2023-01-22T16:17:29.846Z,91.04
2023-01-22T16:19:31.590Z,91.16
2023-01-22T16:23:34.854Z,91
2023-01-22T16:25:36.688Z,91.14
2023-01-22T16:27:37.789Z,91.16
2023-01-22T16:29:39.813Z,91.15
2023-01-22T16:33:42.873Z,91.52
2023-01-22T16:35:44.381Z,91.22
2023-01-22T16:37:45.841Z,91.09
2023-01-22T16:39:47.402Z,91.06
2023-01-22T16:41:48.757Z,90.99
2023-01-22T16:43:50.296Z,91.02
2023-01-22T16:44:34.204Z,91.02
2023-01-22T16:46:35.868Z,91.09
2023-01-22T16:48:37.717Z,91.26
2023-01-22T16:50:39.508Z,91.27
2023-01-22T16:52:40.627Z,91.16
2023-01-22T16:54:42.674Z,91.2
2023-01-22T16:56:44.115Z,91.28
2023-01-22T16:58:45.770Z,91.16
2023-01-22T17:00:47.135Z,91.14
2023-01-22T17:02:48.328Z,91.3
2023-01-22T17:04:49.555Z,91.5
2023-01-22T17:06:50.643Z,91.52
2023-01-22T17:10:53.503Z,91.54
2023-01-22T17:12:54.550Z,91.36
2023-01-22T17:14:56.205Z,91.33
2023-01-22T17:16:57.805Z,91.41
2023-01-22T17:18:59.330Z,91.42
2023-01-22T17:21:02.475Z,91.53
2023-01-22T17:23:02.639Z,91.5
2023-01-22T17:25:04.554Z,91.39
2023-01-22T17:27:05.895Z,91.4
2023-01-22T17:29:07.362Z,91.41
2023-01-22T17:31:08.584Z,91.57
2023-01-22T17:33:10.237Z,91.59
2023-01-22T17:35:11.539Z,91.68
2023-01-22T17:37:12.657Z,91.84
2023-01-22T17:39:14.039Z,91.92
2023-01-22T17:43:16.979Z,92.23
2023-01-22T17:45:18.970Z,92.4
2023-01-22T17:47:19.993Z,92.53
2023-01-22T17:49:21.853Z,92.64
2023-01-22T17:53:24.306Z,92.97
2023-01-22T17:55:26.122Z,93.03
2023-01-22T17:57:28.020Z,93.29
2023-01-22T17:59:29.762Z,93.41
2023-01-22T18:01:31.733Z,93.52
2023-01-22T18:03:32.834Z,93.55
2023-01-22T18:05:34.624Z,93.66
2023-01-22T18:07:36.504Z,93.9
2023-01-22T18:09:37.705Z,93.92
2023-01-22T18:11:39.693Z,94.08
2023-01-22T18:13:41.680Z,94.26
2023-01-22T18:15:42.791Z,94.36
2023-01-22T18:17:44.084Z,94.52
2023-01-22T18:19:45.881Z,94.67
2023-01-22T18:21:47.142Z,94.61
2023-01-22T18:25:50.133Z,94.63
2023-01-22T18:27:51.523Z,94.61
2023-01-22T18:29:52.808Z,94.66
2023-01-22T18:31:54.585Z,94.73
2023-01-22T18:33:56.161Z,95
2023-01-22T18:35:57.839Z,95.19
2023-01-22T18:37:59.363Z,95.24
2023-01-22T18:40:01.177Z,95.52
2023-01-22T18:42:02.961Z,95.6
2023-01-22T18:44:05.024Z,95.54
2023-01-22T18:46:06.982Z,95.57
2023-01-22T18:48:08.230Z,95.58
2023-01-22T18:50:10.170Z,95.62
2023-01-22T18:52:11.331Z,95.78
2023-01-22T18:54:13.308Z,95.91
2023-01-22T18:56:14.426Z,95.94
2023-01-22T18:58:16.277Z,95.98
2023-01-22T19:00:18.281Z,96.01
2023-01-22T19:02:19.990Z,96.05
2023-01-22T19:04:22.158Z,96.05
2023-01-22T19:08:24.879Z,96.08
2023-01-22T19:10:26.178Z,96.14
2023-01-22T19:12:28.174Z,96.35
2023-01-22T19:14:29.485Z,96.44
2023-01-22T19:16:31.390Z,96.6
2023-01-22T19:18:32.490Z,96.71
2023-01-22T19:20:33.685Z,96.78
2023-01-22T19:22:35.058Z,96.85
2023-01-22T19:24:36.255Z,96.9
2023-01-22T19:26:37.871Z,96.98
2023-01-22T19:28:39.282Z,97.04
2023-01-22T19:30:40.645Z,97.01
2023-01-22T19:32:41.864Z,97.04
2023-01-22T19:34:43.170Z,97.07
2023-01-22T19:36:44.814Z,97.06
2023-01-22T19:40:47.677Z,97.04
2023-01-22T19:42:48.759Z,97.1
2023-01-22T19:44:50.367Z,97.09
2023-01-22T19:46:51.841Z,97.11
2023-01-22T19:50:54.746Z,97.09
2023-01-22T19:52:56.142Z,97.09
2023-01-22T19:54:57.685Z,97.11
2023-01-22T19:56:59.275Z,97.13
2023-01-22T19:59:00.929Z,97.13
2023-01-22T20:01:02.361Z,97.14
2023-01-22T20:03:04.077Z,97.16
2023-01-22T20:05:05.232Z,97.14
2023-01-22T20:07:06.414Z,97.15
2023-01-22T20:09:07.534Z,97.17
2023-01-22T20:11:09.293Z,97.18
2023-01-22T20:13:10.708Z,97.16
2023-01-22T20:15:12.397Z,97.16
2023-01-22T20:17:13.715Z,97.06
2023-01-22T20:19:15.148Z,96.98
2023-01-22T20:21:16.184Z,96.9
2023-01-22T20:23:17.980Z,96.77
2023-01-22T20:25:21.745Z,96.73
2023-01-22T20:27:20.447Z,96.7
2023-01-22T20:29:21.744Z,96.64
2023-01-22T20:31:23.832Z,96.57
2023-01-22T20:33:25.087Z,96.58
2023-01-22T20:35:26.301Z,96.55
2023-01-22T20:37:27.897Z,96.52
2023-01-22T20:39:29.519Z,96.53
2023-01-22T20:41:31.522Z,96.53
2023-01-22T20:43:33.304Z,96.48
2023-01-22T20:45:35.384Z,96.44
2023-01-22T20:49:39.178Z,96.38
2023-01-22T20:51:40.658Z,96.39
2023-01-22T20:53:41.713Z,96.42
2023-01-22T20:55:43.182Z,96.45
2023-01-22T20:57:44.638Z,96.44
2023-01-22T20:59:46.561Z,96.44
2023-01-22T21:01:48.612Z,96.43
2023-01-22T21:03:49.661Z,96.48
2023-01-22T21:05:51.630Z,96.47
2023-01-22T21:07:53.466Z,96.5
2023-01-22T21:09:55.342Z,96.52
2023-01-22T21:11:57.052Z,96.5
2023-01-22T21:13:58.774Z,96.53
2023-01-22T21:15:59.834Z,96.53
2023-01-22T21:18:01.853Z,96.54
2023-01-22T21:22:05.461Z,96.47
2023-01-22T21:24:06.831Z,96.43
2023-01-22T21:26:08.326Z,96.45
2023-01-22T21:28:09.786Z,96.46
2023-01-22T21:32:20.427Z,96.4
2023-01-22T21:34:13.928Z,96.42
2023-01-22T21:36:15.080Z,96.44
2023-01-22T21:38:16.864Z,96.39
2023-01-22T21:40:18.604Z,96.35
2023-01-22T21:42:19.732Z,96.47
2023-01-22T21:44:20.801Z,96.45
2023-01-22T21:46:22.839Z,96.39
2023-01-22T21:48:24.151Z,96.36
2023-01-22T21:50:25.202Z,96.33
2023-01-22T21:52:26.723Z,96.31
2023-01-22T21:54:28.145Z,96.34
2023-01-22T21:56:30.003Z,96.42
2023-01-22T21:58:31.108Z,96.38
2023-01-22T22:00:32.998Z,96.35
2023-01-22T22:02:34.909Z,96.26
2023-01-22T22:04:36.033Z,96.23
2023-01-22T22:06:37.255Z,96.25
2023-01-22T22:08:39.100Z,96.35
2023-01-22T22:10:40.762Z,96.36
2023-01-22T22:14:43.728Z,96.36
2023-01-22T22:16:45.146Z,96.39
2023-01-22T22:18:47.134Z,96.43
2023-01-22T22:20:48.983Z,96.45
2023-01-22T22:22:50.477Z,96.45
2023-01-22T22:24:52.027Z,96.49
2023-01-22T22:26:53.601Z,96.48
2023-01-22T22:28:55.539Z,96.45
2023-01-22T22:30:57.526Z,96.49
2023-01-22T22:32:58.959Z,96.47
2023-01-22T22:34:59.963Z,96.39
2023-01-22T22:37:01.969Z,96.25
2023-01-22T22:39:03.236Z,96.2
2023-01-22T22:41:04.907Z,96.1
2023-01-22T22:43:06.066Z,96.06
2023-01-22T22:45:07.790Z,95.99
2023-01-22T22:47:08.968Z,96
2023-01-22T22:49:11.729Z,95.98
2023-01-22T22:51:11.956Z,96
2023-01-22T22:53:13.146Z,96.04
2023-01-22T22:57:16.701Z,96.08
2023-01-22T22:59:18.802Z,96.13
2023-01-22T23:01:19.897Z,96.21
2023-01-22T23:03:21.627Z,96.19
2023-01-22T23:05:23.129Z,96.11
2023-01-22T23:07:24.854Z,96.2
2023-01-22T23:09:26.708Z,96.2
2023-01-22T23:11:28.600Z,96.16
2023-01-22T23:13:29.829Z,96.13
2023-01-22T23:15:31.270Z,96.04
2023-01-22T23:17:33.300Z,96.12
2023-01-22T23:19:35.269Z,96.09
2023-01-22T23:21:36.640Z,96.12
2023-01-22T23:23:38.145Z,96.09
2023-01-22T23:25:40.032Z,96.06
2023-01-22T23:27:41.645Z,96.06
2023-01-22T23:29:42.790Z,96.02
2023-01-22T23:30:26.677Z,96.01
2023-01-22T23:32:28.694Z,95.94
2023-01-22T23:34:30.013Z,96.06
2023-01-22T23:36:31.426Z,95.98
2023-01-22T23:38:33.458Z,96.03
2023-01-22T23:40:35.032Z,96.04
2023-01-22T23:42:36.974Z,96.12
2023-01-22T23:44:38.351Z,96.07
2023-01-22T23:46:40.113Z,96.07
2023-01-22T23:48:41.612Z,95.99
2023-01-22T23:50:42.927Z,96.02
2023-01-22T23:52:44.944Z,95.97
2023-01-22T23:54:46.912Z,95.89
2023-01-22T23:56:48.131Z,95.84
2023-01-22T23:58:49.787Z,95.81
